Terminal Aerodrome Forecast
Issued by NWS

Home | Current Version | Previous Version | Text Only | Print | Product List | Glossary Off
Versions: 1 2 3 4 5 6 7 8 9 10 11 12 13 14 15 16

000
FTUS43 KICT 232339
TAFSLN
TAF
KSLN 232339Z 2400/2424 15012KT P6SM SKC
     FM240700 16014KT P6SM SCT250 WS020/20040KT
     FM241500 18016G23KT P6SM SCT150
     FM241900 20018G27KT P6SM BKN150=

USA.gov is the U.S. government's official web portal to all federal, state and local government web resources and services.